createdAt,value
2023-05-19T00:02:05.914Z,1.88
2023-05-19T00:04:33.688Z,1.50
2023-05-19T00:07:01.946Z,1.70
2023-05-19T00:09:29.524Z,1.70
2023-05-19T00:11:57.114Z,1.80
2023-05-19T00:14:24.617Z,1.92
2023-05-19T00:16:52.117Z,1.92
2023-05-19T00:19:19.588Z,1.55
2023-05-19T00:21:47.027Z,1.70
2023-05-19T00:24:14.818Z,1.58
2023-05-19T00:26:42.149Z,1.52
2023-05-19T00:29:09.551Z,1.67
2023-05-19T00:31:37.028Z,1.60
2023-05-19T00:34:04.531Z,1.52
2023-05-19T00:36:32.115Z,1.80
2023-05-19T00:38:59.507Z,1.80
2023-05-19T00:41:27.050Z,2.00
2023-05-19T00:43:54.847Z,1.73
2023-05-19T00:46:23.107Z,2.10
2023-05-19T00:48:50.918Z,1.90
2023-05-19T00:51:18.983Z,1.77
2023-05-19T00:53:49.278Z,1.65
2023-05-19T00:56:17.007Z,1.35
2023-05-19T00:58:44.601Z,1.02
2023-05-19T01:01:14.511Z,1.30
2023-05-19T01:03:43.156Z,1.40
2023-05-19T01:06:12.340Z,1.40
2023-05-19T01:08:40.037Z,1.70
2023-05-19T01:11:08.072Z,1.90
2023-05-19T01:13:36.364Z,1.70
2023-05-19T01:16:07.264Z,1.60
2023-05-19T01:18:49.957Z,1.42
2023-05-19T01:21:44.436Z,1.98
2023-05-19T01:24:24.185Z,1.70
2023-05-19T01:27:03.312Z,1.63
2023-05-19T01:29:36.830Z,1.40
2023-05-19T01:32:05.552Z,1.60
2023-05-19T01:34:36.076Z,1.58
2023-05-19T01:37:05.154Z,1.63
2023-05-19T01:39:33.007Z,1.65
2023-05-19T01:42:01.951Z,1.70
2023-05-19T01:44:29.875Z,1.80
2023-05-19T01:46:57.420Z,1.73
2023-05-19T01:49:24.752Z,1.20
2023-05-19T01:51:53.400Z,1.58
2023-05-19T01:54:22.958Z,1.40
2023-05-19T01:57:09.007Z,1.30
2023-05-19T01:59:36.655Z,1.60
2023-05-19T02:02:08.770Z,1.40
2023-05-19T02:04:44.482Z,1.42
2023-05-19T02:07:18.041Z,1.55
2023-05-19T02:09:50.776Z,2.20
2023-05-19T02:12:26.598Z,1.85
2023-05-19T02:14:57.108Z,1.83
2023-05-19T02:17:25.759Z,1.92
2023-05-19T02:19:53.279Z,1.60
2023-05-19T02:22:21.276Z,1.77
2023-05-19T02:24:51.590Z,1.80
2023-05-19T02:27:19.162Z,1.90
2023-05-19T02:29:46.485Z,2.50
2023-05-19T02:32:14.183Z,1.98
2023-05-19T02:34:45.558Z,1.80
2023-05-19T02:37:14.588Z,2.20
2023-05-19T02:39:42.617Z,2.10
2023-05-19T02:42:10.155Z,1.80
2023-05-19T02:44:37.510Z,1.80
2023-05-19T02:47:05.635Z,1.80
2023-05-19T02:49:36.014Z,1.70
2023-05-19T02:52:04.032Z,2.10
2023-05-19T02:54:31.731Z,2.05
2023-05-19T02:56:59.563Z,2.05
2023-05-19T02:59:27.234Z,2.10
2023-05-19T03:02:00.665Z,1.75
2023-05-19T03:04:29.265Z,2.05
2023-05-19T03:06:57.746Z,2.00
2023-05-19T03:09:25.382Z,2.20
2023-05-19T03:11:52.782Z,2.00
2023-05-19T03:14:23.798Z,2.00
2023-05-19T03:16:51.636Z,2.35
2023-05-19T03:19:19.122Z,1.83
2023-05-19T03:21:47.492Z,2.13
2023-05-19T03:24:14.826Z,1.90
2023-05-19T03:26:42.870Z,1.75
2023-05-19T03:29:10.249Z,1.67
2023-05-19T03:31:38.382Z,1.80
2023-05-19T03:34:06.145Z,2.03
2023-05-19T03:36:39.741Z,2.13
2023-05-19T03:39:12.391Z,1.90
2023-05-19T03:41:40.094Z,1.77
2023-05-19T03:44:07.491Z,1.90
2023-05-19T03:46:35.045Z,1.85
2023-05-19T03:49:11.849Z,2.20
2023-05-19T03:52:05.273Z,2.10
2023-05-19T03:54:39.557Z,2.20
2023-05-19T03:57:06.980Z,1.95
2023-05-19T03:59:35.381Z,1.77
2023-05-19T04:02:04.465Z,1.83
2023-05-19T04:04:31.863Z,2.08
2023-05-19T04:06:59.274Z,1.95
2023-05-19T04:09:26.657Z,1.95
2023-05-19T04:11:55.740Z,2.42
2023-05-19T04:14:24.952Z,1.90
2023-05-19T04:16:52.422Z,2.50
2023-05-19T04:19:19.790Z,2.20
2023-05-19T04:21:47.196Z,2.17
2023-05-19T04:24:14.594Z,2.20
2023-05-19T04:26:45.970Z,2.40
2023-05-19T04:29:18.036Z,2.20
2023-05-19T04:31:46.102Z,2.40
2023-05-19T04:34:13.784Z,2.10
2023-05-19T04:36:41.679Z,2.17
2023-05-19T04:39:12.379Z,2.40
2023-05-19T04:41:46.098Z,2.17
2023-05-19T04:46:48.340Z,2.70
2023-05-19T04:49:15.798Z,2.60
2023-05-19T04:51:46.059Z,2.42
2023-05-19T04:54:14.614Z,2.40
2023-05-19T05:00:30.362Z,2.08
2023-05-19T05:03:07.788Z,2.03
2023-05-19T05:05:35.796Z,2.35
2023-05-19T05:08:03.258Z,2.10
2023-05-19T05:10:35.898Z,2.33
2023-05-19T05:13:03.419Z,2.33
2023-05-19T05:15:31.142Z,2.17
2023-05-19T05:18:01.574Z,2.20
2023-05-19T05:20:29.236Z,2.60
2023-05-19T05:22:58.072Z,2.28
2023-05-19T05:25:26.703Z,2.80
2023-05-19T05:27:54.157Z,2.35
2023-05-19T05:30:21.529Z,2.40
2023-05-19T05:32:49.825Z,2.50
2023-05-19T05:35:29.781Z,2.05
2023-05-19T05:37:57.497Z,2.05
2023-05-19T05:40:25.430Z,2.30
2023-05-19T05:42:55.658Z,2.15
2023-05-19T05:45:24.342Z,2.30
2023-05-19T05:47:53.099Z,2.00
2023-05-19T05:50:20.742Z,2.00
2023-05-19T05:52:48.966Z,2.10
2023-05-19T05:55:18.522Z,2.03
2023-05-19T05:57:46.071Z,2.17
2023-05-19T06:00:17.506Z,2.00
2023-05-19T06:02:51.939Z,2.22
2023-05-19T06:05:20.408Z,2.47
2023-05-19T06:07:49.151Z,2.33
2023-05-19T06:10:22.163Z,2.10
2023-05-19T06:12:50.925Z,2.08
2023-05-19T06:15:18.364Z,2.00
2023-05-19T06:18:02.659Z,1.90
2023-05-19T06:20:30.204Z,1.80
2023-05-19T06:22:58.327Z,2.00
2023-05-19T06:25:27.694Z,2.13
2023-05-19T06:27:56.077Z,2.00
2023-05-19T06:30:24.216Z,1.67
2023-05-19T06:33:17.256Z,1.73
2023-05-19T06:35:44.717Z,2.00
2023-05-19T06:38:12.128Z,2.00
2023-05-19T06:40:39.820Z,1.98
2023-05-19T06:43:09.924Z,2.72
2023-05-19T06:45:56.582Z,2.10
2023-05-19T06:48:26.947Z,1.70
2023-05-19T06:50:55.086Z,1.70
2023-05-19T06:53:22.694Z,1.90
2023-05-19T06:55:59.545Z,1.80
2023-05-19T06:58:31.009Z,1.83
2023-05-19T07:00:59.633Z,2.10
2023-05-19T07:05:59.667Z,2.10
2023-05-19T07:08:28.375Z,1.85
2023-05-19T07:10:56.108Z,2.20
2023-05-19T07:13:25.359Z,2.00
2023-05-19T07:15:57.599Z,2.50
2023-05-19T07:18:26.535Z,1.90
2023-05-19T07:20:53.926Z,1.70
2023-05-19T07:23:21.784Z,2.10
2023-05-19T07:25:49.157Z,2.45
2023-05-19T07:28:16.606Z,2.30
2023-05-19T07:30:44.275Z,2.00
2023-05-19T07:33:11.726Z,2.00
2023-05-19T07:35:39.160Z,2.00
2023-05-19T07:38:07.467Z,1.90
2023-05-19T07:40:34.951Z,1.80
2023-05-19T07:43:02.402Z,2.33
2023-05-19T07:45:29.749Z,2.53
2023-05-19T07:47:57.251Z,2.22
2023-05-19T07:50:25.445Z,2.30
2023-05-19T07:52:53.428Z,2.15
2023-05-19T07:55:23.199Z,1.83
2023-05-19T07:57:51.199Z,2.22
2023-05-19T08:00:18.924Z,2.00
2023-05-19T08:02:46.424Z,2.58
2023-05-19T08:05:13.834Z,2.30
2023-05-19T08:07:41.236Z,1.80
2023-05-19T08:10:08.735Z,2.05
2023-05-19T08:12:36.150Z,2.28
2023-05-19T08:15:03.535Z,2.55
2023-05-19T08:17:31.497Z,2.17
2023-05-19T08:20:00.329Z,1.90
2023-05-19T08:22:28.155Z,2.30
2023-05-19T08:24:55.577Z,1.92
2023-05-19T08:27:23.134Z,2.33
2023-05-19T08:29:50.567Z,1.98
2023-05-19T08:32:18.021Z,1.95
2023-05-19T08:34:45.410Z,2.65
2023-05-19T08:37:13.187Z,2.30
2023-05-19T08:39:40.611Z,2.03
2023-05-19T08:42:09.854Z,2.10
2023-05-19T08:44:40.152Z,1.90
2023-05-19T08:47:13.245Z,2.00
2023-05-19T08:49:45.285Z,2.10
2023-05-19T08:52:24.811Z,1.88
2023-05-19T08:55:01.066Z,1.70
2023-05-19T08:57:29.055Z,1.75
2023-05-19T08:59:57.267Z,2.08
2023-05-19T09:02:25.035Z,2.10
2023-05-19T09:04:52.808Z,2.05
2023-05-19T09:07:21.109Z,2.00
2023-05-19T09:09:48.643Z,1.70
2023-05-19T09:12:16.189Z,2.00
2023-05-19T09:14:43.697Z,2.10
2023-05-19T09:17:11.245Z,2.00
2023-05-19T09:19:43.816Z,2.42
2023-05-19T09:22:11.468Z,2.10
2023-05-19T09:24:40.478Z,2.03
2023-05-19T09:27:07.922Z,1.70
2023-05-19T09:29:35.305Z,1.90
2023-05-19T09:32:05.200Z,1.50
2023-05-19T09:34:32.918Z,2.00
2023-05-19T09:37:00.439Z,1.60
2023-05-19T09:39:28.955Z,2.20
2023-05-19T09:41:59.824Z,2.72
2023-05-19T09:44:31.284Z,2.10
2023-05-19T09:46:58.875Z,2.38
2023-05-19T09:49:31.188Z,2.13
2023-05-19T09:51:59.558Z,2.10
2023-05-19T09:54:29.801Z,1.80
2023-05-19T09:56:59.074Z,1.75
2023-05-19T09:59:28.455Z,1.73
2023-05-19T10:01:58.360Z,2.30
2023-05-19T10:04:29.725Z,1.73
2023-05-19T10:06:59.658Z,1.50
2023-05-19T10:09:28.956Z,1.95
2023-05-19T10:11:57.047Z,1.67
2023-05-19T10:14:25.082Z,2.08
2023-05-19T10:16:53.402Z,1.90
2023-05-19T10:19:28.136Z,2.03
2023-05-19T10:21:56.184Z,1.60
2023-05-19T10:24:23.601Z,1.60
2023-05-19T10:26:57.198Z,1.90
2023-05-19T10:29:29.339Z,1.65
2023-05-19T10:32:00.053Z,1.77
2023-05-19T10:34:27.879Z,1.83
2023-05-19T10:36:58.375Z,2.10
2023-05-19T10:39:30.559Z,1.85
2023-05-19T10:41:57.882Z,2.13
2023-05-19T10:44:41.353Z,2.10
2023-05-19T10:47:12.178Z,1.98
2023-05-19T10:49:40.612Z,1.30
2023-05-19T10:52:26.142Z,1.38
2023-05-19T10:54:54.817Z,1.50
2023-05-19T10:57:30.588Z,1.70
2023-05-19T10:59:59.180Z,1.65
2023-05-19T11:02:38.265Z,1.60
2023-05-19T11:05:09.591Z,1.38
2023-05-19T11:07:37.474Z,1.55
2023-05-19T11:10:08.337Z,1.80
2023-05-19T11:12:45.867Z,1.60
2023-05-19T11:15:14.698Z,1.27
2023-05-19T11:17:43.467Z,1.63
2023-05-19T11:20:44.656Z,1.50
2023-05-19T11:23:18.821Z,1.42
2023-05-19T11:25:48.281Z,1.40
2023-05-19T11:28:26.248Z,1.20
2023-05-19T11:30:54.971Z,1.50
2023-05-19T11:33:27.050Z,1.30
2023-05-19T11:35:57.991Z,1.40
2023-05-19T11:38:25.457Z,1.38
2023-05-19T11:40:56.460Z,1.30
2023-05-19T11:43:26.845Z,1.40
2023-05-19T11:45:55.059Z,1.70
2023-05-19T11:48:22.956Z,1.40
2023-05-19T11:50:51.076Z,1.40
2023-05-19T11:53:22.008Z,1.42
2023-05-19T11:55:50.054Z,1.42
2023-05-19T11:58:17.878Z,1.45
2023-05-19T12:00:48.409Z,1.00
2023-05-19T12:03:21.637Z,1.60
2023-05-19T12:05:50.249Z,1.38
2023-05-19T12:08:21.699Z,1.30
2023-05-19T12:10:52.430Z,1.13
2023-05-19T12:13:21.046Z,1.43
2023-05-19T12:15:48.500Z,1.58
2023-05-19T12:18:16.002Z,1.60
2023-05-19T12:20:43.897Z,1.00
2023-05-19T12:23:11.424Z,1.40
2023-05-19T12:25:38.889Z,1.27
2023-05-19T12:28:06.410Z,1.17
2023-05-19T12:30:35.145Z,1.20
2023-05-19T12:33:03.305Z,1.38
2023-05-19T12:35:36.039Z,1.33
2023-05-19T12:38:04.891Z,1.30
2023-05-19T12:40:33.217Z,1.17
2023-05-19T12:43:00.809Z,1.10
2023-05-19T12:45:28.816Z,1.30
2023-05-19T12:47:56.689Z,1.52
2023-05-19T12:50:30.892Z,1.08
2023-05-19T12:53:00.003Z,1.48
2023-05-19T12:55:27.489Z,1.90
2023-05-19T12:57:57.294Z,1.27
2023-05-19T13:00:28.533Z,1.23
2023-05-19T13:02:58.754Z,1.20
2023-05-19T13:05:27.054Z,1.30
2023-05-19T13:07:57.560Z,1.42
2023-05-19T13:10:27.268Z,1.25
2023-05-19T13:12:58.857Z,1.42
2023-05-19T13:15:27.096Z,1.30
2023-05-19T13:17:54.927Z,1.33
2023-05-19T13:20:22.551Z,1.25
2023-05-19T13:22:50.723Z,1.00
2023-05-19T13:25:18.280Z,1.10
2023-05-19T13:27:46.154Z,1.10
2023-05-19T13:30:13.914Z,1.15
2023-05-19T13:32:41.495Z,1.05
2023-05-19T13:35:10.021Z,1.00
2023-05-19T13:37:37.537Z,4.65
2023-05-19T13:40:05.191Z,1.70
2023-05-19T13:42:33.463Z,1.13
2023-05-19T13:45:00.947Z,1.15
2023-05-19T13:47:28.776Z,1.10
2023-05-19T13:49:56.609Z,1.00
2023-05-19T13:52:24.006Z,0.90
2023-05-19T13:54:54.415Z,1.10
2023-05-19T13:57:22.656Z,1.10
2023-05-19T14:00:01.590Z,1.00
2023-05-19T14:02:39.934Z,1.30
2023-05-19T14:05:08.017Z,1.00
2023-05-19T14:07:35.790Z,1.20
2023-05-19T14:10:05.472Z,1.10
2023-05-19T14:12:45.046Z,1.40
2023-05-19T14:15:20.959Z,0.90
2023-05-19T14:17:49.067Z,0.90
2023-05-19T14:20:17.056Z,1.00
2023-05-19T14:22:44.495Z,0.70
2023-05-19T14:25:11.931Z,1.10
2023-05-19T14:27:42.706Z,1.00
2023-05-19T14:30:10.570Z,0.70
2023-05-19T14:32:37.966Z,0.90
2023-05-19T14:35:07.186Z,0.90
2023-05-19T14:37:35.904Z,1.00
2023-05-19T14:40:04.488Z,0.90
2023-05-19T14:42:31.947Z,1.00
2023-05-19T14:44:59.468Z,1.00
2023-05-19T14:47:27.504Z,0.90
2023-05-19T14:49:55.045Z,0.98
2023-05-19T14:52:22.959Z,1.00
2023-05-19T14:54:50.455Z,0.85
2023-05-19T14:57:17.865Z,1.00
2023-05-19T14:59:45.331Z,1.10
2023-05-19T15:02:12.975Z,0.80
2023-05-19T15:04:40.486Z,0.80
2023-05-19T15:07:10.732Z,1.10
2023-05-19T15:09:38.826Z,0.80
2023-05-19T15:12:06.359Z,0.70
2023-05-19T15:14:33.779Z,0.80
2023-05-19T15:17:01.309Z,1.00
2023-05-19T15:19:29.001Z,0.95
2023-05-19T15:21:56.529Z,0.98
2023-05-19T15:24:24.294Z,1.13
2023-05-19T15:26:52.136Z,0.90
2023-05-19T15:29:19.630Z,1.00
2023-05-19T15:31:47.265Z,0.90
2023-05-19T15:34:14.830Z,1.10
2023-05-19T15:36:42.294Z,1.00
2023-05-19T15:39:10.031Z,1.00
2023-05-19T15:41:37.441Z,1.00
2023-05-19T15:44:06.662Z,1.00
2023-05-19T15:46:34.598Z,1.08
2023-05-19T15:49:02.031Z,1.20
2023-05-19T15:51:29.846Z,1.08
2023-05-19T15:53:57.455Z,0.80
2023-05-19T15:56:24.945Z,1.00
2023-05-19T15:58:52.576Z,0.93
2023-05-19T16:01:20.424Z,1.00
2023-05-19T16:03:48.040Z,1.00
2023-05-19T16:06:16.179Z,1.05
2023-05-19T16:08:44.324Z,1.05
2023-05-19T16:11:12.080Z,1.00
2023-05-19T16:13:39.610Z,0.98
2023-05-19T16:16:07.421Z,0.90
2023-05-19T16:18:34.857Z,1.20
2023-05-19T16:21:02.456Z,1.20
2023-05-19T16:23:29.937Z,2.50
2023-05-19T16:25:57.635Z,1.52
2023-05-19T16:28:25.312Z,0.98
2023-05-19T16:30:53.436Z,1.08
2023-05-19T16:33:20.777Z,1.10
2023-05-19T16:35:48.242Z,1.10
2023-05-19T16:38:15.728Z,1.20
2023-05-19T16:40:44.615Z,1.00
2023-05-19T16:43:14.410Z,1.20
2023-05-19T16:45:41.903Z,1.17
2023-05-19T16:48:09.495Z,1.10
2023-05-19T16:50:37.361Z,1.30
2023-05-19T16:53:07.223Z,1.05
2023-05-19T16:55:36.899Z,1.17
2023-05-19T16:58:04.480Z,1.02
2023-05-19T17:00:32.429Z,1.00
2023-05-19T17:03:00.423Z,1.23
2023-05-19T17:05:30.478Z,1.13
2023-05-19T17:07:58.045Z,1.10
2023-05-19T17:10:25.842Z,1.30
2023-05-19T17:12:53.401Z,1.25
2023-05-19T17:15:20.878Z,1.10
2023-05-19T17:17:48.530Z,1.23
2023-05-19T17:20:16.445Z,1.17
2023-05-19T17:22:44.336Z,1.20
2023-05-19T17:25:11.682Z,1.40
2023-05-19T17:27:39.335Z,1.20
2023-05-19T17:30:09.824Z,1.52
2023-05-19T17:32:39.624Z,1.20
2023-05-19T17:35:07.733Z,1.13
2023-05-19T17:37:35.285Z,1.10
2023-05-19T17:40:02.750Z,1.20
2023-05-19T17:42:31.609Z,1.50
2023-05-19T17:44:58.998Z,1.05
2023-05-19T17:47:26.623Z,1.33
2023-05-19T17:49:54.095Z,1.20
2023-05-19T17:52:21.897Z,1.40
2023-05-19T17:54:50.525Z,1.65
2023-05-19T17:57:18.716Z,1.20
2023-05-19T17:59:46.479Z,1.20
2023-05-19T18:02:15.185Z,1.60
2023-05-19T18:04:43.002Z,1.40
2023-05-19T18:07:10.734Z,1.60
2023-05-19T18:09:38.790Z,1.63
2023-05-19T18:12:06.746Z,1.17
2023-05-19T18:14:34.149Z,1.52
2023-05-19T18:17:01.557Z,1.40
2023-05-19T18:19:29.065Z,1.80
2023-05-19T18:21:56.548Z,1.63
2023-05-19T18:24:24.044Z,1.50
2023-05-19T18:26:51.436Z,1.83
2023-05-19T18:29:19.203Z,1.55
2023-05-19T18:31:46.667Z,1.50
2023-05-19T18:34:14.312Z,1.85
2023-05-19T18:36:42.126Z,2.05
2023-05-19T18:39:09.637Z,1.30
2023-05-19T18:41:41.092Z,1.60
2023-05-19T18:44:08.749Z,1.40
2023-05-19T18:46:36.148Z,1.63
2023-05-19T18:49:04.015Z,1.73
2023-05-19T18:51:33.461Z,1.38
2023-05-19T18:54:01.373Z,1.90
2023-05-19T18:56:33.276Z,1.98
2023-05-19T18:59:00.686Z,1.77
2023-05-19T19:01:28.252Z,1.70
2023-05-19T19:03:55.802Z,1.60
2023-05-19T19:06:23.412Z,1.80
2023-05-19T19:08:51.041Z,1.70
2023-05-19T19:11:18.689Z,1.52
2023-05-19T19:13:46.284Z,1.80
2023-05-19T19:16:13.633Z,1.80
2023-05-19T19:18:41.371Z,1.65
2023-05-19T19:21:08.811Z,1.77
2023-05-19T19:23:36.254Z,1.85
2023-05-19T19:26:03.685Z,2.20
2023-05-19T19:28:31.177Z,2.08
2023-05-19T19:30:58.528Z,2.15
2023-05-19T19:33:25.894Z,1.92
2023-05-19T19:35:53.298Z,1.80
2023-05-19T19:38:20.747Z,1.90
2023-05-19T19:40:48.234Z,2.13
2023-05-19T19:43:15.608Z,2.22
2023-05-19T19:45:43.004Z,2.20
2023-05-19T19:48:11.870Z,2.00
2023-05-19T19:50:39.507Z,2.60
2023-05-19T19:53:08.738Z,1.90
2023-05-19T19:55:36.646Z,2.30
2023-05-19T19:58:04.054Z,2.10
2023-05-19T20:00:31.649Z,2.00
2023-05-19T20:05:29.593Z,1.92
2023-05-19T20:07:57.348Z,2.00
2023-05-19T20:10:24.766Z,1.90
2023-05-19T20:12:52.391Z,2.28
2023-05-19T20:15:19.999Z,2.20
2023-05-19T20:17:47.406Z,2.25
2023-05-19T20:20:14.928Z,1.77
2023-05-19T20:22:44.341Z,2.22
2023-05-19T20:25:12.135Z,2.05
2023-05-19T20:27:39.517Z,2.00
2023-05-19T20:30:07.367Z,1.90
2023-05-19T20:32:35.091Z,2.35
2023-05-19T20:35:02.468Z,1.80
2023-05-19T20:37:29.787Z,2.17
2023-05-19T20:39:57.183Z,2.20
2023-05-19T20:42:24.505Z,1.90
2023-05-19T20:44:51.999Z,2.22
2023-05-19T20:47:19.496Z,2.10
2023-05-19T20:49:48.158Z,1.77
2023-05-19T20:52:16.074Z,2.00
2023-05-19T20:54:43.551Z,1.80
2023-05-19T20:57:11.452Z,2.03
2023-05-19T20:59:39.075Z,2.28
2023-05-19T21:02:07.599Z,2.17
2023-05-19T21:04:35.760Z,2.10
2023-05-19T21:07:03.129Z,1.90
2023-05-19T21:09:30.703Z,2.10
2023-05-19T21:11:58.009Z,2.10
2023-05-19T21:14:26.339Z,2.10
2023-05-19T21:16:54.351Z,2.00
2023-05-19T21:19:22.099Z,2.70
2023-05-19T21:21:49.911Z,2.03
2023-05-19T21:24:17.487Z,2.08
2023-05-19T21:26:44.858Z,2.20
2023-05-19T21:29:12.727Z,2.55
2023-05-19T21:31:40.146Z,1.90
2023-05-19T21:34:07.745Z,2.40
2023-05-19T21:36:35.929Z,2.20
2023-05-19T21:39:05.199Z,2.55
2023-05-19T21:41:32.844Z,2.42
2023-05-19T21:44:00.765Z,2.63
2023-05-19T21:46:31.039Z,2.10
2023-05-19T21:48:58.847Z,2.30
2023-05-19T21:51:26.267Z,2.72
2023-05-19T21:53:53.750Z,2.40
2023-05-19T21:56:21.199Z,2.88
2023-05-19T21:58:48.635Z,2.53
2023-05-19T22:01:16.637Z,1.75
2023-05-19T22:03:44.321Z,2.30
2023-05-19T22:06:11.805Z,2.63
2023-05-19T22:08:39.157Z,2.38
2023-05-19T22:11:06.827Z,2.25
2023-05-19T22:13:34.727Z,2.38
2023-05-19T22:16:04.654Z,2.65
2023-05-19T22:18:32.535Z,2.42
2023-05-19T22:20:59.928Z,2.20
2023-05-19T22:23:28.106Z,2.55
2023-05-19T22:25:55.522Z,2.53
2023-05-19T22:28:23.281Z,2.40
2023-05-19T22:30:50.669Z,2.38
2023-05-19T22:33:18.064Z,2.20
2023-05-19T22:35:45.985Z,2.25
2023-05-19T22:38:13.350Z,2.13
2023-05-19T22:40:40.860Z,1.92
2023-05-19T22:43:08.470Z,2.10
2023-05-19T22:45:36.763Z,2.15
2023-05-19T22:48:05.008Z,2.35
2023-05-19T22:50:32.578Z,2.08
2023-05-19T22:53:00.174Z,2.10
2023-05-19T22:55:27.515Z,2.30
2023-05-19T22:57:54.861Z,2.25
2023-05-19T23:00:22.431Z,2.40
2023-05-19T23:02:49.905Z,1.85
2023-05-19T23:05:17.387Z,2.30
2023-05-19T23:07:44.830Z,1.95
2023-05-19T23:10:12.250Z,2.03
2023-05-19T23:12:40.074Z,2.00
2023-05-19T23:15:08.442Z,2.20
2023-05-19T23:17:36.311Z,2.10
2023-05-19T23:20:03.972Z,2.30
2023-05-19T23:22:31.405Z,2.33
2023-05-19T23:24:58.846Z,2.47
2023-05-19T23:27:26.723Z,2.40
2023-05-19T23:29:54.066Z,2.17
2023-05-19T23:32:21.389Z,2.53
2023-05-19T23:34:48.894Z,2.55
2023-05-19T23:37:16.375Z,2.97
2023-05-19T23:39:43.785Z,2.50
2023-05-19T23:42:11.194Z,2.40
2023-05-19T23:44:38.579Z,2.30
2023-05-19T23:47:06.266Z,2.40
2023-05-19T23:49:33.662Z,2.15
2023-05-19T23:52:01.236Z,2.00
2023-05-19T23:54:30.283Z,2.10
2023-05-19T23:56:58.439Z,2.00
2023-05-19T23:59:25.855Z,2.00
